createdAt,value
2023-03-27T00:00:16.708Z,94258.16
2023-03-27T00:03:20.024Z,94247.59
2023-03-27T00:06:24.873Z,94258.41
2023-03-27T00:09:32.676Z,94264.75
2023-03-27T00:12:35.245Z,94262.91
2023-03-27T00:15:38.640Z,94265.00
2023-03-27T00:18:41.124Z,94263.44
2023-03-27T00:21:44.957Z,94269.81
2023-03-27T00:24:48.736Z,94269.81
2023-03-27T00:27:51.376Z,94276.91
2023-03-27T00:30:54.943Z,94280.34
2023-03-27T00:33:57.951Z,94270.84
2023-03-27T00:37:00.491Z,94272.69
2023-03-27T00:40:08.052Z,94277.97
2023-03-27T00:43:21.689Z,94282.97
2023-03-27T00:46:35.982Z,94285.88
2023-03-27T00:49:39.465Z,94290.88
2023-03-27T00:52:45.009Z,94288.25
2023-03-27T00:55:52.578Z,94299.59
2023-03-27T00:58:59.336Z,94292.44
2023-03-27T01:02:02.289Z,94292.72
2023-03-27T01:05:05.317Z,94299.84
2023-03-27T01:08:08.787Z,94298.78
2023-03-27T01:11:19.870Z,94304.06
2023-03-27T01:14:29.374Z,94313.81
2023-03-27T01:17:49.743Z,94320.41
2023-03-27T01:21:22.430Z,94330.97
2023-03-27T01:24:57.837Z,94336.50
2023-03-27T01:28:29.071Z,94354.44
2023-03-27T01:31:49.002Z,94365.75
2023-03-27T01:35:20.797Z,94379.22
2023-03-27T01:38:44.898Z,94390.28
2023-03-27T01:41:57.853Z,94406.09
2023-03-27T01:45:06.017Z,94403.16
2023-03-27T01:48:14.288Z,94409.53
2023-03-27T01:51:21.316Z,94415.59
2023-03-27T01:54:29.450Z,94422.41
2023-03-27T01:57:48.930Z,94427.97
2023-03-27T02:00:57.053Z,94434.56
2023-03-27T02:04:06.287Z,94449.84
2023-03-27T02:07:13.952Z,94455.41
2023-03-27T02:10:22.123Z,94465.94
2023-03-27T02:13:30.650Z,94476.47
2023-03-27T02:16:36.821Z,94488.63
2023-03-27T02:19:47.333Z,94494.16
2023-03-27T02:22:49.876Z,94513.38
2023-03-27T02:25:54.518Z,94508.13
2023-03-27T02:29:08.332Z,94521.56
2023-03-27T02:32:25.318Z,94534.47
2023-03-27T02:35:36.402Z,94533.69
2023-03-27T02:38:44.091Z,94538.44
2023-03-27T02:41:52.067Z,94537.66
2023-03-27T02:45:02.736Z,94546.09
2023-03-27T02:48:11.346Z,94558.72
2023-03-27T02:51:18.758Z,94573.50
2023-03-27T02:54:27.398Z,94576.94
2023-03-27T02:57:34.073Z,94590.91
2023-03-27T03:00:43.680Z,94588.25
2023-03-27T03:03:53.885Z,94597.22
2023-03-27T03:06:56.930Z,94598.28
2023-03-27T03:09:59.374Z,94605.41
2023-03-27T03:13:01.863Z,94611.19
2023-03-27T03:16:07.196Z,94621.75
2023-03-27T03:19:09.911Z,94628.84
2023-03-27T03:22:13.274Z,94626.22
2023-03-27T03:25:15.919Z,94629.91
2023-03-27T03:28:19.077Z,94646.53
2023-03-27T03:31:23.416Z,94654.97
2023-03-27T03:34:27.890Z,94660.75
2023-03-27T03:37:30.412Z,94671.03
2023-03-27T03:40:33.572Z,94671.31
2023-03-27T03:43:36.352Z,94689.50
2023-03-27T03:46:40.958Z,94702.41
2023-03-27T03:49:43.475Z,94704.25
2023-03-27T03:52:47.199Z,94708.50
2023-03-27T03:55:52.393Z,94716.91
2023-03-27T03:58:54.849Z,94719.00
2023-03-27T04:01:59.015Z,94730.09
2023-03-27T04:05:08.616Z,94733.78
2023-03-27T04:08:12.411Z,94738.25
2023-03-27T04:11:14.933Z,94740.09
2023-03-27T04:14:17.328Z,94751.69
2023-03-27T04:17:23.246Z,94750.09
2023-03-27T04:20:26.509Z,94758.03
2023-03-27T04:23:30.318Z,94761.44
2023-03-27T04:26:33.011Z,94762.25
2023-03-27T04:29:35.685Z,94769.34
2023-03-27T04:32:39.561Z,94769.34
2023-03-27T04:35:44.945Z,94765.94
2023-03-27T04:38:49.189Z,94772.25
2023-03-27T04:41:53.772Z,94781.75
2023-03-27T04:44:56.635Z,94783.34
2023-03-27T04:48:00.737Z,94799.16
2023-03-27T04:51:03.421Z,94803.63
2023-03-27T04:54:07.320Z,94802.03
2023-03-27T04:57:10.109Z,94821.28
2023-03-27T05:00:17.005Z,94825.75
2023-03-27T05:03:20.807Z,94832.88
2023-03-27T05:06:23.844Z,94839.19
2023-03-27T05:09:27.400Z,94844.47
2023-03-27T05:12:29.900Z,94836.84
2023-03-27T05:15:33.507Z,94844.75
2023-03-27T05:18:38.342Z,94853.72
2023-03-27T05:21:46.326Z,94852.13
2023-03-27T05:24:49.193Z,94859.78
2023-03-27T05:27:53.287Z,94864.00
2023-03-27T05:30:57.139Z,94878.75
2023-03-27T05:34:01.185Z,94880.88
2023-03-27T05:45:55.255Z,94880.06
2023-03-27T05:53:28.523Z,94896.69
2023-03-27T05:56:32.228Z,94907.47
2023-03-27T05:59:35.038Z,94904.59
2023-03-27T06:02:37.853Z,94896.94
2023-03-27T06:05:42.412Z,94907.22
2023-03-27T06:08:45.056Z,94909.88
2023-03-27T06:11:48.148Z,94913.81
2023-03-27T06:14:51.432Z,94927.53
2023-03-27T06:17:54.463Z,94928.56
2023-03-27T06:20:59.045Z,94932.81
2023-03-27T06:24:01.967Z,94935.44
2023-03-27T06:27:04.578Z,94935.44
2023-03-27T06:30:09.405Z,94937.28
2023-03-27T06:33:12.536Z,94939.13
2023-03-27T06:36:18.151Z,94946.78
2023-03-27T06:39:21.543Z,94950.47
2023-03-27T06:43:30.412Z,94967.88
2023-03-27T07:12:08.852Z,95023.19
2023-03-27T07:15:48.604Z,95017.91
2023-03-27T07:19:14.870Z,95011.59
2023-03-27T07:22:36.487Z,95021.34
2023-03-27T07:46:25.703Z,95074.06
2023-03-27T07:49:38.895Z,95080.13
2023-03-27T07:52:45.098Z,95080.13
2023-03-27T07:55:48.637Z,95077.72
2023-03-27T08:16:17.377Z,95116.97
2023-03-27T08:19:21.292Z,95122.78
2023-03-27T08:22:24.685Z,95123.34
2023-03-27T08:25:29.673Z,95126.22
2023-03-27T08:28:34.069Z,95131.25
2023-03-27T08:31:38.027Z,95128.63
2023-03-27T08:34:42.393Z,95127.81
2023-03-27T08:37:45.056Z,95129.66
2023-03-27T08:40:49.330Z,95144.44
2023-03-27T08:43:53.311Z,95150.81
2023-03-27T08:47:01.350Z,95153.44
2023-03-27T08:50:07.256Z,95152.34
2023-03-27T08:53:19.651Z,95158.16
2023-03-27T08:56:22.570Z,95165.28
2023-03-27T08:59:27.697Z,95162.88
2023-03-27T09:02:44.921Z,95160.50
2023-03-27T09:05:54.370Z,95158.66
2023-03-27T09:09:04.899Z,95174.47
2023-03-27T09:12:21.908Z,95174.47
2023-03-27T09:15:29.008Z,95185.81
2023-03-27T09:18:37.248Z,95191.09
2023-03-27T09:21:46.433Z,95196.59
2023-03-27T09:24:51.876Z,95201.63
2023-03-27T09:27:54.936Z,95199.78
2023-03-27T09:30:59.963Z,95212.97
2023-03-27T09:34:09.043Z,95208.50
2023-03-27T09:37:13.542Z,95215.59
2023-03-27T09:40:23.737Z,95219.28
2023-03-27T09:43:29.572Z,95222.47
2023-03-27T09:46:34.067Z,95227.75
2023-03-27T09:49:41.174Z,95235.91
2023-03-27T09:52:43.879Z,95237.50
2023-03-27T09:55:52.980Z,95239.34
2023-03-27T09:58:57.175Z,95243.81
2023-03-27T10:02:01.530Z,95243.81
2023-03-27T10:05:12.196Z,95239.56
2023-03-27T10:08:33.192Z,95237.97
2023-03-27T10:11:36.691Z,95243.25
2023-03-27T10:14:41.976Z,95251.97
2023-03-27T10:17:49.936Z,95248.28
2023-03-27T10:20:55.856Z,95250.91
2023-03-27T10:24:05.702Z,95253.56
2023-03-27T10:27:12.087Z,95259.88
2023-03-27T10:30:28.854Z,95263.53
2023-03-27T10:33:33.638Z,95254.84
2023-03-27T10:36:39.691Z,95265.94
2023-03-27T10:39:44.355Z,95278.06
2023-03-27T10:42:48.869Z,95285.19
2023-03-27T10:45:54.585Z,95276.72
2023-03-27T10:49:04.649Z,95280.97
2023-03-27T10:52:18.113Z,95286.22
2023-03-27T10:55:36.757Z,95273.03
2023-03-27T10:58:45.399Z,95273.28
2023-03-27T11:01:53.046Z,95283.59
2023-03-27T11:04:59.945Z,95287.03
2023-03-27T11:08:10.154Z,95289.09
2023-03-27T11:11:18.745Z,95295.72
2023-03-27T11:14:26.806Z,95290.69
2023-03-27T11:17:34.237Z,95302.84
2023-03-27T11:20:44.286Z,95303.88
2023-03-27T11:23:53.301Z,95300.22
2023-03-27T11:27:04.750Z,95304.69
2023-03-27T11:30:28.284Z,95310.75
2023-03-27T11:33:41.466Z,95327.59
2023-03-27T11:36:49.473Z,95315.19
2023-03-27T11:40:01.483Z,95318.84
2023-03-27T11:43:04.744Z,95326.53
2023-03-27T11:46:21.368Z,95324.69
2023-03-27T11:49:39.378Z,95321.00
2023-03-27T11:52:54.332Z,95333.63
2023-03-27T11:56:11.406Z,95340.75
2023-03-27T11:59:29.616Z,95348.41
2023-03-27T12:02:53.007Z,95342.34
2023-03-27T12:06:07.567Z,95349.44
2023-03-27T12:09:20.733Z,95351.03
2023-03-27T12:13:04.229Z,95348.41
2023-03-27T12:16:23.201Z,95339.94
2023-03-27T12:19:39.633Z,95332.84
2023-03-27T12:22:50.561Z,95331.00
2023-03-27T12:26:33.400Z,95351.28
2023-03-27T12:29:48.571Z,95365.50
2023-03-27T12:33:03.352Z,95374.78
2023-03-27T12:36:08.323Z,95371.34
2023-03-27T12:39:21.081Z,95368.69
2023-03-27T12:42:51.079Z,95367.09
2023-03-27T12:46:17.210Z,95367.34
2023-03-27T13:03:53.704Z,95376.06
2023-03-27T13:16:22.968Z,95389.78
2023-03-27T13:19:39.059Z,95388.19
2023-03-27T13:22:57.030Z,95404.56
2023-03-27T13:26:30.252Z,95392.66
2023-03-27T13:29:35.042Z,95391.38
2023-03-27T13:32:40.012Z,95387.94
2023-03-27T13:35:53.675Z,95390.59
2023-03-27T13:39:24.983Z,95392.19
2023-03-27T13:42:33.652Z,95399.28
2023-03-27T13:45:46.534Z,95395.84
2023-03-27T13:49:05.837Z,95407.19
2023-03-27T13:52:31.554Z,95401.13
2023-03-27T13:55:51.385Z,95406.94
2023-03-27T13:59:15.267Z,95404.28
2023-03-27T14:02:36.896Z,95405.91
2023-03-27T14:06:04.848Z,95399.03
2023-03-27T14:09:18.200Z,95395.84
2023-03-27T14:12:25.492Z,95400.09
2023-03-27T14:15:42.977Z,95396.66
2023-03-27T14:19:02.392Z,95395.34
2023-03-27T14:22:14.465Z,95384.28
2023-03-27T14:25:20.267Z,95402.16
2023-03-27T14:28:32.454Z,95440.41
2023-03-27T14:31:35.869Z,95459.66
2023-03-27T14:37:59.996Z,95462.78
2023-03-27T14:41:05.135Z,95469.91
2023-03-27T14:44:08.458Z,95460.97
2023-03-27T14:47:16.109Z,95454.88
2023-03-27T14:50:19.266Z,95449.38
2023-03-27T14:53:27.802Z,95448.59
2023-03-27T14:56:37.026Z,95453.06
2023-03-27T14:59:42.903Z,95454.66
2023-03-27T15:02:48.198Z,95467.28
2023-03-27T15:05:57.214Z,95467.03
2023-03-27T15:09:05.391Z,95474.94
2023-03-27T15:12:11.149Z,95491.00
2023-03-27T15:15:23.056Z,95494.44
2023-03-27T15:18:32.794Z,95486.75
2023-03-27T15:21:44.248Z,95505.78
2023-03-27T15:24:53.759Z,95519.19
2023-03-27T15:28:00.710Z,95521.59
2023-03-27T15:31:05.135Z,95525.25
2023-03-27T15:34:14.305Z,95519.75
2023-03-27T15:37:19.820Z,95517.13
2023-03-27T15:40:36.602Z,95522.38
2023-03-27T15:43:39.301Z,95519.75
2023-03-27T15:46:55.321Z,95524.75
2023-03-27T15:50:06.900Z,95534.78
2023-03-27T15:53:09.988Z,95531.91
2023-03-27T15:56:22.770Z,95526.06
2023-03-27T15:59:27.309Z,95532.13
2023-03-27T16:02:30.763Z,95528.47
2023-03-27T16:05:33.464Z,95541.88
2023-03-27T16:08:38.848Z,95537.63
2023-03-27T16:11:46.057Z,95535.56
2023-03-27T16:14:54.453Z,95528.19
2023-03-27T16:17:58.974Z,95527.16
2023-03-27T16:21:07.805Z,95536.91
2023-03-27T16:24:10.263Z,95539.25
2023-03-27T16:27:14.285Z,95545.84
2023-03-27T16:30:23.566Z,95552.19
2023-03-27T16:33:28.489Z,95559.28
2023-03-27T16:36:32.873Z,95560.34
2023-03-27T16:39:35.594Z,95563.19
2023-03-27T16:42:39.555Z,95567.44
2023-03-27T16:45:42.195Z,95572.94
2023-03-27T16:48:44.677Z,95571.91
2023-03-27T16:51:47.158Z,95573.50
2023-03-27T16:54:49.644Z,95581.41
2023-03-27T16:57:54.675Z,95590.13
2023-03-27T17:00:57.198Z,95591.16
2023-03-27T17:03:59.692Z,95592.44
2023-03-27T17:07:02.149Z,95597.25
2023-03-27T17:10:06.599Z,95600.09
2023-03-27T17:13:10.961Z,95604.56
2023-03-27T17:16:13.546Z,95601.13
2023-03-27T17:19:16.524Z,95611.69
2023-03-27T17:22:19.352Z,95612.47
2023-03-27T17:25:21.872Z,95612.72
2023-03-27T17:28:26.119Z,95614.09
2023-03-27T17:31:30.792Z,95627.50
2023-03-27T17:34:33.768Z,95629.34
2023-03-27T17:37:36.430Z,95627.25
2023-03-27T17:40:43.132Z,95624.41
2023-03-27T17:43:47.312Z,95634.38
2023-03-27T17:46:50.123Z,95644.13
2023-03-27T17:49:54.305Z,95651.22
2023-03-27T17:52:57.259Z,95651.22
2023-03-27T17:55:59.968Z,95657.53
2023-03-27T17:59:05.972Z,95675.75
2023-03-27T18:02:08.756Z,95668.06
2023-03-27T18:05:11.382Z,95673.91
2023-03-27T18:08:15.896Z,95676.78
2023-03-27T18:11:18.642Z,95681.81
2023-03-27T18:14:22.560Z,95677.59
2023-03-27T18:17:25.378Z,95683.88
2023-03-27T18:20:27.858Z,95687.56
2023-03-27T18:23:31.339Z,95693.41
2023-03-27T18:26:34.245Z,95684.69
2023-03-27T18:29:38.340Z,95697.31
2023-03-27T18:32:42.719Z,95695.47
2023-03-27T18:35:46.865Z,95705.44
2023-03-27T18:38:50.050Z,95712.09
2023-03-27T18:41:54.894Z,95718.38
2023-03-27T18:44:58.759Z,95714.72
2023-03-27T18:48:01.429Z,95720.22
2023-03-27T18:51:06.709Z,95710.47
2023-03-27T18:54:09.487Z,95714.72
2023-03-27T18:57:12.490Z,95719.19
2023-03-27T19:00:18.406Z,95711.28
2023-03-27T19:03:23.385Z,95710.47
2023-03-27T19:06:26.081Z,95718.38
2023-03-27T19:09:40.699Z,95708.41
2023-03-27T19:12:44.326Z,95722.63
2023-03-27T19:15:49.036Z,95719.19
2023-03-27T19:18:51.481Z,95718.16
2023-03-27T19:21:54.452Z,95715.75
2023-03-27T19:24:56.970Z,95718.16
2023-03-27T19:27:59.477Z,95718.63
2023-03-27T19:31:06.998Z,95719.41
2023-03-27T19:34:09.466Z,95712.09
2023-03-27T19:37:12.099Z,95711.06
2023-03-27T19:40:15.661Z,95716.78
2023-03-27T19:43:18.878Z,95726.31
2023-03-27T19:46:24.393Z,95720.00
2023-03-27T19:49:26.856Z,95726.31
2023-03-27T19:52:29.367Z,95729.97
2023-03-27T19:55:31.757Z,95730.53
2023-03-27T19:58:34.527Z,95731.34
2023-03-27T20:01:44.051Z,95732.13
2023-03-27T20:04:46.823Z,95729.50
2023-03-27T20:07:49.354Z,95726.88
2023-03-27T20:10:52.008Z,95728.94
2023-03-27T20:13:56.991Z,95726.31
2023-03-27T20:17:01.368Z,95727.09
2023-03-27T20:20:06.067Z,95721.03
2023-03-27T20:23:10.010Z,95726.88
2023-03-27T20:26:13.933Z,95732.94
2023-03-27T20:29:19.209Z,95726.06
2023-03-27T20:32:23.240Z,95736.63
2023-03-27T20:35:26.053Z,95732.13
2023-03-27T20:38:31.712Z,95741.09
2023-03-27T20:41:38.931Z,95738.44
2023-03-27T20:44:42.964Z,95732.13
2023-03-27T20:47:48.259Z,95736.84
2023-03-27T20:50:52.434Z,95731.34
2023-03-27T20:53:58.357Z,95723.91
2023-03-27T20:57:01.534Z,95728.13
2023-03-27T21:00:06.942Z,95731.81
2023-03-27T21:03:11.999Z,95725.72
2023-03-27T21:06:17.181Z,95727.34
2023-03-27T21:09:19.649Z,95724.94
2023-03-27T21:12:22.166Z,95726.53
2023-03-27T21:15:24.707Z,95732.84
2023-03-27T21:18:28.493Z,95723.09
2023-03-27T21:21:32.095Z,95723.09
2023-03-27T21:24:34.521Z,95722.28
2023-03-27T21:27:36.946Z,95727.34
2023-03-27T21:30:46.358Z,95728.13
2023-03-27T21:33:51.716Z,95724.94
2023-03-27T21:36:54.323Z,95719.91
2023-03-27T21:39:56.914Z,95721.75
2023-03-27T21:43:00.560Z,95722.78
2023-03-27T21:46:03.905Z,95716.47
2023-03-27T21:49:07.959Z,95713.03
2023-03-27T21:52:11.088Z,95715.69
2023-03-27T21:55:13.607Z,95721.75
2023-03-27T21:58:16.115Z,95715.69
2023-03-27T22:01:18.781Z,95719.34
2023-03-27T22:04:23.120Z,95718.53
2023-03-27T22:07:25.626Z,95721.97
2023-03-27T22:10:29.130Z,95719.34
2023-03-27T22:13:33.078Z,95728.28
2023-03-27T22:16:36.203Z,95716.94
2023-03-27T22:19:40.019Z,95713.50
2023-03-27T22:22:42.633Z,95718.53
2023-03-27T22:25:52.781Z,95715.09
2023-03-27T22:28:56.441Z,95716.38
2023-03-27T22:31:59.021Z,95717.97
2023-03-27T22:35:03.048Z,95725.06
2023-03-27T22:38:05.471Z,95723.69
2023-03-27T22:41:10.253Z,95730.34
2023-03-27T22:44:12.949Z,95725.53
2023-03-27T22:47:15.540Z,95723.94
2023-03-27T22:50:19.375Z,95732.41
2023-03-27T22:53:22.161Z,95730.56
2023-03-27T22:56:24.781Z,95731.16
2023-03-27T22:59:27.360Z,95728.75
2023-03-27T23:02:30.048Z,95737.69
2023-03-27T23:05:39.386Z,95755.56
2023-03-27T23:08:41.911Z,95748.22
2023-03-27T23:11:45.354Z,95749.25
2023-03-27T23:14:47.759Z,95742.16
2023-03-27T23:17:50.272Z,95750.06
2023-03-27T23:20:59.080Z,95745.03
2023-03-27T23:24:01.656Z,95750.28
2023-03-27T23:27:05.043Z,95760.03
2023-03-27T23:30:08.985Z,95758.75
2023-03-27T23:33:12.428Z,95764.03
2023-03-27T23:36:18.091Z,95766.69
2023-03-27T23:39:20.976Z,95771.94
2023-03-27T23:42:23.730Z,95767.09
2023-03-27T23:45:26.245Z,95766.09
2023-03-27T23:48:29.714Z,95775.00
2023-03-27T23:51:33.621Z,95776.84
2023-03-27T23:54:36.484Z,95760.84
2023-03-27T23:57:39.354Z,95777.09
